Strang, Nebraska
Current Conditions -  °F | °C
As of 10:55 PM on Wednesday 22 Oct 2014 (Local Time) from KHJH Reporting Station
Overcast Overcast  
Wind Chill: 62°   Ceiling: 4600
Heat Index: 62°   Visibility: 10mi
Dew Point: 58°   Wind: 7mph
Humidity: 86%   Direction: 200°SSW
Pressure: 30.05"   Gusts: NA
Location:  40.42°N, 97.59°W
Report Text: KHJH 230355Z AUTO 20006KT 10SM BKN046 OVC050 17/14 A3005 RMK AO2 T01660143
Loading
Personal Weather Stations






























Interactive Weather Map
Tropical Storm Tracking
New forecast layout! Learn more

10-Day Weather Forecast

Advertisements
Track Severe Weather on mobile